sensor_id;sensor_type;location;lat;lon;timestamp;P1;durP1;ratioP1;P2;durP2;ratioP2
32705;SDS011;19094;50.972;3.538;2023-04-25T00:01:11;17.63;;;5.93;;
32705;SDS011;19094;50.972;3.538;2023-04-25T00:03:38;25.63;;;5.60;;
32705;SDS011;19094;50.972;3.538;2023-04-25T00:06:04;27.13;;;6.53;;
32705;SDS011;19094;50.972;3.538;2023-04-25T00:08:30;25.80;;;5.82;;
32705;SDS011;19094;50.972;3.538;2023-04-25T00:10:56;32.67;;;6.57;;
32705;SDS011;19094;50.972;3.538;2023-04-25T00:13:22;23.73;;;5.82;;
32705;SDS011;19094;50.972;3.538;2023-04-25T00:15:48;20.92;;;5.70;;
32705;SDS011;19094;50.972;3.538;2023-04-25T00:18:14;22.83;;;5.43;;
32705;SDS011;19094;50.972;3.538;2023-04-25T00:20:40;23.67;;;5.35;;
32705;SDS011;19094;50.972;3.538;2023-04-25T00:23:11;21.35;;;5.57;;
32705;SDS011;19094;50.972;3.538;2023-04-25T00:25:46;20.60;;;5.72;;
32705;SDS011;19094;50.972;3.538;2023-04-25T00:28:13;25.50;;;5.65;;
32705;SDS011;19094;50.972;3.538;2023-04-25T00:30:39;24.75;;;6.35;;
32705;SDS011;19094;50.972;3.538;2023-04-25T00:33:05;17.30;;;4.68;;
32705;SDS011;19094;50.972;3.538;2023-04-25T00:35:31;21.52;;;5.18;;
32705;SDS011;19094;50.972;3.538;2023-04-25T00:37:57;24.45;;;5.45;;
32705;SDS011;19094;50.972;3.538;2023-04-25T00:40:23;20.33;;;5.18;;
32705;SDS011;19094;50.972;3.538;2023-04-25T00:42:49;25.75;;;5.78;;
32705;SDS011;19094;50.972;3.538;2023-04-25T00:45:17;22.77;;;5.65;;
32705;SDS011;19094;50.972;3.538;2023-04-25T00:47:44;18.30;;;5.57;;
32705;SDS011;19094;50.972;3.538;2023-04-25T00:50:11;21.92;;;5.75;;
32705;SDS011;19094;50.972;3.538;2023-04-25T00:52:38;22.75;;;5.97;;
32705;SDS011;19094;50.972;3.538;2023-04-25T00:55:05;21.45;;;6.47;;
32705;SDS011;19094;50.972;3.538;2023-04-25T00:57:32;28.80;;;6.38;;
32705;SDS011;19094;50.972;3.538;2023-04-25T00:59:58;22.80;;;5.68;;
32705;SDS011;19094;50.972;3.538;2023-04-25T01:02:24;24.48;;;5.18;;
32705;SDS011;19094;50.972;3.538;2023-04-25T01:04:52;22.00;;;5.35;;
32705;SDS011;19094;50.972;3.538;2023-04-25T01:07:18;27.83;;;5.10;;
32705;SDS011;19094;50.972;3.538;2023-04-25T01:09:44;21.15;;;4.43;;
32705;SDS011;19094;50.972;3.538;2023-04-25T01:12:10;18.50;;;5.53;;
32705;SDS011;19094;50.972;3.538;2023-04-25T01:14:36;22.67;;;4.90;;
32705;SDS011;19094;50.972;3.538;2023-04-25T01:17:02;28.67;;;5.55;;
32705;SDS011;19094;50.972;3.538;2023-04-25T01:19:28;25.83;;;5.95;;
32705;SDS011;19094;50.972;3.538;2023-04-25T01:21:54;20.23;;;4.78;;
32705;SDS011;19094;50.972;3.538;2023-04-25T01:24:20;17.40;;;4.50;;
32705;SDS011;19094;50.972;3.538;2023-04-25T01:26:46;24.65;;;5.63;;
32705;SDS011;19094;50.972;3.538;2023-04-25T01:29:18;24.85;;;5.63;;
32705;SDS011;19094;50.972;3.538;2023-04-25T01:31:45;23.70;;;4.85;;
32705;SDS011;19094;50.972;3.538;2023-04-25T01:34:11;26.92;;;5.55;;
32705;SDS011;19094;50.972;3.538;2023-04-25T01:36:38;15.93;;;4.55;;
32705;SDS011;19094;50.972;3.538;2023-04-25T01:39:03;21.70;;;4.97;;
32705;SDS011;19094;50.972;3.538;2023-04-25T01:41:29;20.45;;;5.10;;
32705;SDS011;19094;50.972;3.538;2023-04-25T01:43:55;26.85;;;4.85;;
32705;SDS011;19094;50.972;3.538;2023-04-25T01:46:21;22.77;;;4.78;;
32705;SDS011;19094;50.972;3.538;2023-04-25T01:48:47;20.90;;;4.93;;
32705;SDS011;19094;50.972;3.538;2023-04-25T01:51:12;22.10;;;5.07;;
32705;SDS011;19094;50.972;3.538;2023-04-25T01:53:39;26.05;;;5.47;;
32705;SDS011;19094;50.972;3.538;2023-04-25T01:56:05;19.80;;;4.50;;
32705;SDS011;19094;50.972;3.538;2023-04-25T01:58:30;17.90;;;4.22;;
32705;SDS011;19094;50.972;3.538;2023-04-25T02:00:56;17.67;;;4.80;;
32705;SDS011;19094;50.972;3.538;2023-04-25T02:03:22;20.50;;;4.60;;
32705;SDS011;19094;50.972;3.538;2023-04-25T02:05:48;18.10;;;4.07;;
32705;SDS011;19094;50.972;3.538;2023-04-25T02:08:13;14.55;;;4.05;;
32705;SDS011;19094;50.972;3.538;2023-04-25T02:10:41;18.67;;;3.45;;
32705;SDS011;19094;50.972;3.538;2023-04-25T02:13:06;24.42;;;4.80;;
32705;SDS011;19094;50.972;3.538;2023-04-25T02:15:32;17.70;;;3.75;;
32705;SDS011;19094;50.972;3.538;2023-04-25T02:17:58;22.17;;;4.10;;
32705;SDS011;19094;50.972;3.538;2023-04-25T02:20:25;22.20;;;4.93;;
32705;SDS011;19094;50.972;3.538;2023-04-25T02:22:51;19.73;;;3.58;;
32705;SDS011;19094;50.972;3.538;2023-04-25T02:25:17;22.73;;;4.40;;
32705;SDS011;19094;50.972;3.538;2023-04-25T02:27:45;14.65;;;4.15;;
32705;SDS011;19094;50.972;3.538;2023-04-25T02:30:11;16.27;;;3.70;;
32705;SDS011;19094;50.972;3.538;2023-04-25T02:32:38;19.02;;;3.95;;
32705;SDS011;19094;50.972;3.538;2023-04-25T02:35:04;16.83;;;4.25;;
32705;SDS011;19094;50.972;3.538;2023-04-25T02:37:31;15.25;;;3.78;;
32705;SDS011;19094;50.972;3.538;2023-04-25T02:40:00;14.95;;;3.92;;
32705;SDS011;19094;50.972;3.538;2023-04-25T02:42:26;11.82;;;4.10;;
32705;SDS011;19094;50.972;3.538;2023-04-25T02:44:52;16.55;;;4.63;;
32705;SDS011;19094;50.972;3.538;2023-04-25T02:47:18;18.90;;;3.67;;
32705;SDS011;19094;50.972;3.538;2023-04-25T02:49:43;17.92;;;3.97;;
32705;SDS011;19094;50.972;3.538;2023-04-25T02:52:10;17.90;;;3.72;;
32705;SDS011;19094;50.972;3.538;2023-04-25T02:54:36;18.63;;;3.95;;
32705;SDS011;19094;50.972;3.538;2023-04-25T02:57:03;19.25;;;4.65;;
32705;SDS011;19094;50.972;3.538;2023-04-25T02:59:28;17.50;;;3.97;;
32705;SDS011;19094;50.972;3.538;2023-04-25T03:01:54;16.23;;;4.65;;
32705;SDS011;19094;50.972;3.538;2023-04-25T03:04:20;15.07;;;4.07;;
32705;SDS011;19094;50.972;3.538;2023-04-25T03:06:45;17.67;;;4.05;;
32705;SDS011;19094;50.972;3.538;2023-04-25T03:09:11;22.88;;;4.45;;
32705;SDS011;19094;50.972;3.538;2023-04-25T03:11:38;22.08;;;4.43;;
32705;SDS011;19094;50.972;3.538;2023-04-25T03:14:04;19.67;;;4.45;;
32705;SDS011;19094;50.972;3.538;2023-04-25T03:16:33;22.85;;;4.25;;
32705;SDS011;19094;50.972;3.538;2023-04-25T03:18:58;11.27;;;4.18;;
32705;SDS011;19094;50.972;3.538;2023-04-25T03:21:24;19.98;;;4.07;;
32705;SDS011;19094;50.972;3.538;2023-04-25T03:23:51;15.75;;;4.63;;
32705;SDS011;19094;50.972;3.538;2023-04-25T03:26:17;19.02;;;4.53;;
32705;SDS011;19094;50.972;3.538;2023-04-25T03:28:42;16.85;;;4.13;;
32705;SDS011;19094;50.972;3.538;2023-04-25T03:31:08;18.15;;;4.50;;
32705;SDS011;19094;50.972;3.538;2023-04-25T03:33:34;20.05;;;4.20;;
32705;SDS011;19094;50.972;3.538;2023-04-25T03:36:00;19.08;;;5.53;;
32705;SDS011;19094;50.972;3.538;2023-04-25T03:38:25;17.92;;;4.45;;
32705;SDS011;19094;50.972;3.538;2023-04-25T03:40:51;19.17;;;5.15;;
32705;SDS011;19094;50.972;3.538;2023-04-25T03:43:17;19.75;;;6.25;;
32705;SDS011;19094;50.972;3.538;2023-04-25T03:45:42;15.30;;;3.80;;
32705;SDS011;19094;50.972;3.538;2023-04-25T03:48:08;11.70;;;3.50;;
32705;SDS011;19094;50.972;3.538;2023-04-25T03:50:34;18.50;;;3.90;;
32705;SDS011;19094;50.972;3.538;2023-04-25T03:53:00;16.60;;;4.10;;
32705;SDS011;19094;50.972;3.538;2023-04-25T03:55:25;14.73;;;3.97;;
32705;SDS011;19094;50.972;3.538;2023-04-25T03:57:51;19.90;;;3.63;;
32705;SDS011;19094;50.972;3.538;2023-04-25T04:00:17;13.20;;;3.97;;
32705;SDS011;19094;50.972;3.538;2023-04-25T04:02:42;24.52;;;6.97;;
32705;SDS011;19094;50.972;3.538;2023-04-25T04:05:08;15.60;;;4.05;;
32705;SDS011;19094;50.972;3.538;2023-04-25T04:07:34;18.80;;;3.40;;
32705;SDS011;19094;50.972;3.538;2023-04-25T04:10:05;14.43;;;4.15;;
32705;SDS011;19094;50.972;3.538;2023-04-25T04:12:34;20.67;;;4.18;;
32705;SDS011;19094;50.972;3.538;2023-04-25T04:15:01;8.93;;;3.33;;
32705;SDS011;19094;50.972;3.538;2023-04-25T04:17:28;11.00;;;3.35;;
32705;SDS011;19094;50.972;3.538;2023-04-25T04:19:54;19.27;;;4.82;;
32705;SDS011;19094;50.972;3.538;2023-04-25T04:22:21;19.40;;;4.25;;
32705;SDS011;19094;50.972;3.538;2023-04-25T04:24:47;16.08;;;3.50;;
32705;SDS011;19094;50.972;3.538;2023-04-25T04:27:12;16.92;;;4.30;;
32705;SDS011;19094;50.972;3.538;2023-04-25T04:29:38;18.65;;;4.97;;
32705;SDS011;19094;50.972;3.538;2023-04-25T04:32:04;12.38;;;3.55;;
32705;SDS011;19094;50.972;3.538;2023-04-25T04:34:30;13.02;;;3.83;;
32705;SDS011;19094;50.972;3.538;2023-04-25T04:36:56;17.33;;;4.07;;
32705;SDS011;19094;50.972;3.538;2023-04-25T04:39:22;18.45;;;4.30;;
32705;SDS011;19094;50.972;3.538;2023-04-25T04:41:47;15.10;;;3.10;;
32705;SDS011;19094;50.972;3.538;2023-04-25T04:44:13;14.95;;;4.22;;
32705;SDS011;19094;50.972;3.538;2023-04-25T04:46:39;16.92;;;4.35;;
32705;SDS011;19094;50.972;3.538;2023-04-25T04:49:09;19.27;;;3.80;;
32705;SDS011;19094;50.972;3.538;2023-04-25T04:51:36;13.32;;;3.47;;
32705;SDS011;19094;50.972;3.538;2023-04-25T04:54:02;16.58;;;3.67;;
32705;SDS011;19094;50.972;3.538;2023-04-25T04:56:29;16.85;;;3.95;;
32705;SDS011;19094;50.972;3.538;2023-04-25T04:58:58;13.00;;;3.40;;
32705;SDS011;19094;50.972;3.538;2023-04-25T05:01:24;9.80;;;3.05;;
32705;SDS011;19094;50.972;3.538;2023-04-25T05:03:51;21.38;;;3.33;;
32705;SDS011;19094;50.972;3.538;2023-04-25T05:06:18;14.50;;;3.85;;
32705;SDS011;19094;50.972;3.538;2023-04-25T05:08:44;10.15;;;2.88;;
32705;SDS011;19094;50.972;3.538;2023-04-25T05:11:10;20.40;;;3.65;;
32705;SDS011;19094;50.972;3.538;2023-04-25T05:13:36;17.83;;;3.47;;
32705;SDS011;19094;50.972;3.538;2023-04-25T05:16:01;12.52;;;3.38;;
32705;SDS011;19094;50.972;3.538;2023-04-25T05:18:27;12.68;;;2.78;;
32705;SDS011;19094;50.972;3.538;2023-04-25T05:20:53;10.30;;;2.85;;
32705;SDS011;19094;50.972;3.538;2023-04-25T05:23:19;16.35;;;3.70;;
32705;SDS011;19094;50.972;3.538;2023-04-25T05:25:44;14.85;;;3.55;;
32705;SDS011;19094;50.972;3.538;2023-04-25T05:28:11;12.38;;;3.97;;
32705;SDS011;19094;50.972;3.538;2023-04-25T05:30:37;13.02;;;3.55;;
32705;SDS011;19094;50.972;3.538;2023-04-25T05:33:03;10.85;;;3.45;;
32705;SDS011;19094;50.972;3.538;2023-04-25T05:35:29;18.10;;;3.47;;
32705;SDS011;19094;50.972;3.538;2023-04-25T05:37:56;20.17;;;3.72;;
32705;SDS011;19094;50.972;3.538;2023-04-25T05:40:22;14.18;;;3.38;;
32705;SDS011;19094;50.972;3.538;2023-04-25T05:42:48;19.85;;;3.60;;
32705;SDS011;19094;50.972;3.538;2023-04-25T05:45:13;16.23;;;3.88;;
32705;SDS011;19094;50.972;3.538;2023-04-25T05:47:39;13.30;;;3.83;;
32705;SDS011;19094;50.972;3.538;2023-04-25T05:50:05;11.75;;;3.03;;
32705;SDS011;19094;50.972;3.538;2023-04-25T05:52:31;11.40;;;3.63;;
32705;SDS011;19094;50.972;3.538;2023-04-25T05:54:57;14.63;;;3.47;;
32705;SDS011;19094;50.972;3.538;2023-04-25T05:57:23;23.15;;;4.15;;
32705;SDS011;19094;50.972;3.538;2023-04-25T05:59:50;19.50;;;4.00;;
32705;SDS011;19094;50.972;3.538;2023-04-25T06:02:16;18.35;;;3.40;;
32705;SDS011;19094;50.972;3.538;2023-04-25T06:04:42;18.98;;;4.28;;
32705;SDS011;19094;50.972;3.538;2023-04-25T06:07:08;19.42;;;4.63;;
32705;SDS011;19094;50.972;3.538;2023-04-25T06:09:34;20.77;;;3.95;;
32705;SDS011;19094;50.972;3.538;2023-04-25T06:11:59;22.55;;;4.40;;
32705;SDS011;19094;50.972;3.538;2023-04-25T06:14:26;19.75;;;4.20;;
32705;SDS011;19094;50.972;3.538;2023-04-25T06:16:52;15.30;;;3.67;;
32705;SDS011;19094;50.972;3.538;2023-04-25T06:19:18;25.55;;;5.40;;
32705;SDS011;19094;50.972;3.538;2023-04-25T06:21:43;16.50;;;2.97;;
32705;SDS011;19094;50.972;3.538;2023-04-25T06:24:09;14.77;;;3.60;;
32705;SDS011;19094;50.972;3.538;2023-04-25T06:26:35;12.80;;;3.40;;
32705;SDS011;19094;50.972;3.538;2023-04-25T06:29:01;15.90;;;3.75;;
32705;SDS011;19094;50.972;3.538;2023-04-25T06:31:27;11.93;;;3.38;;
32705;SDS011;19094;50.972;3.538;2023-04-25T06:33:54;10.20;;;3.55;;
32705;SDS011;19094;50.972;3.538;2023-04-25T06:36:20;16.85;;;3.70;;
32705;SDS011;19094;50.972;3.538;2023-04-25T06:38:50;21.02;;;3.72;;
32705;SDS011;19094;50.972;3.538;2023-04-25T06:41:16;11.25;;;3.05;;
32705;SDS011;19094;50.972;3.538;2023-04-25T06:43:42;19.20;;;3.15;;
32705;SDS011;19094;50.972;3.538;2023-04-25T06:46:07;12.32;;;2.08;;
32705;SDS011;19094;50.972;3.538;2023-04-25T06:48:33;16.50;;;3.25;;
32705;SDS011;19094;50.972;3.538;2023-04-25T06:50:59;14.32;;;3.47;;
32705;SDS011;19094;50.972;3.538;2023-04-25T06:53:24;10.35;;;3.05;;
32705;SDS011;19094;50.972;3.538;2023-04-25T06:55:50;12.18;;;3.05;;
32705;SDS011;19094;50.972;3.538;2023-04-25T06:58:17;14.82;;;3.00;;
32705;SDS011;19094;50.972;3.538;2023-04-25T07:00:42;9.38;;;2.28;;
32705;SDS011;19094;50.972;3.538;2023-04-25T07:03:08;17.52;;;2.88;;
32705;SDS011;19094;50.972;3.538;2023-04-25T07:05:34;11.90;;;2.90;;
32705;SDS011;19094;50.972;3.538;2023-04-25T07:08:00;16.55;;;3.72;;
32705;SDS011;19094;50.972;3.538;2023-04-25T07:10:26;11.65;;;2.38;;
32705;SDS011;19094;50.972;3.538;2023-04-25T07:12:52;9.75;;;2.47;;
32705;SDS011;19094;50.972;3.538;2023-04-25T07:15:17;13.07;;;2.55;;
32705;SDS011;19094;50.972;3.538;2023-04-25T07:17:43;11.98;;;2.60;;
32705;SDS011;19094;50.972;3.538;2023-04-25T07:20:09;10.98;;;2.70;;
32705;SDS011;19094;50.972;3.538;2023-04-25T07:22:35;9.63;;;2.72;;
32705;SDS011;19094;50.972;3.538;2023-04-25T07:25:00;7.57;;;2.03;;
32705;SDS011;19094;50.972;3.538;2023-04-25T07:27:26;18.25;;;2.28;;
32705;SDS011;19094;50.972;3.538;2023-04-25T07:29:52;8.45;;;2.35;;
32705;SDS011;19094;50.972;3.538;2023-04-25T07:32:18;10.15;;;2.40;;
32705;SDS011;19094;50.972;3.538;2023-04-25T07:34:44;15.15;;;2.70;;
32705;SDS011;19094;50.972;3.538;2023-04-25T07:37:10;15.77;;;2.83;;
32705;SDS011;19094;50.972;3.538;2023-04-25T07:39:36;8.57;;;2.25;;
32705;SDS011;19094;50.972;3.538;2023-04-25T07:42:02;7.78;;;1.90;;
32705;SDS011;19094;50.972;3.538;2023-04-25T07:44:29;8.93;;;2.22;;
32705;SDS011;19094;50.972;3.538;2023-04-25T07:47:03;13.13;;;2.33;;
32705;SDS011;19094;50.972;3.538;2023-04-25T07:49:29;14.95;;;2.38;;
32705;SDS011;19094;50.972;3.538;2023-04-25T07:51:55;14.73;;;2.60;;
32705;SDS011;19094;50.972;3.538;2023-04-25T07:54:20;12.32;;;1.85;;
32705;SDS011;19094;50.972;3.538;2023-04-25T07:56:46;11.60;;;2.22;;
32705;SDS011;19094;50.972;3.538;2023-04-25T07:59:12;13.23;;;2.15;;
32705;SDS011;19094;50.972;3.538;2023-04-25T08:01:37;16.40;;;2.28;;
32705;SDS011;19094;50.972;3.538;2023-04-25T08:04:03;10.00;;;2.13;;
32705;SDS011;19094;50.972;3.538;2023-04-25T08:06:29;12.35;;;1.90;;
32705;SDS011;19094;50.972;3.538;2023-04-25T08:08:54;12.93;;;2.05;;
32705;SDS011;19094;50.972;3.538;2023-04-25T08:11:20;9.82;;;1.73;;
32705;SDS011;19094;50.972;3.538;2023-04-25T08:13:46;10.77;;;2.53;;
32705;SDS011;19094;50.972;3.538;2023-04-25T08:16:11;8.80;;;1.88;;
32705;SDS011;19094;50.972;3.538;2023-04-25T08:18:37;6.75;;;1.25;;
32705;SDS011;19094;50.972;3.538;2023-04-25T08:21:03;11.85;;;1.88;;
32705;SDS011;19094;50.972;3.538;2023-04-25T08:23:28;6.63;;;1.67;;
32705;SDS011;19094;50.972;3.538;2023-04-25T08:25:54;9.88;;;1.95;;
32705;SDS011;19094;50.972;3.538;2023-04-25T08:28:20;10.45;;;1.83;;
32705;SDS011;19094;50.972;3.538;2023-04-25T08:30:46;14.40;;;1.88;;
32705;SDS011;19094;50.972;3.538;2023-04-25T08:33:11;6.68;;;1.50;;
32705;SDS011;19094;50.972;3.538;2023-04-25T08:35:37;9.05;;;1.60;;
32705;SDS011;19094;50.972;3.538;2023-04-25T08:38:03;10.93;;;1.65;;
32705;SDS011;19094;50.972;3.538;2023-04-25T08:40:28;10.43;;;1.70;;
32705;SDS011;19094;50.972;3.538;2023-04-25T08:42:56;14.10;;;1.95;;
32705;SDS011;19094;50.972;3.538;2023-04-25T08:45:23;8.48;;;1.80;;
32705;SDS011;19094;50.972;3.538;2023-04-25T08:47:51;9.82;;;1.65;;
32705;SDS011;19094;50.972;3.538;2023-04-25T08:50:18;12.30;;;1.65;;
32705;SDS011;19094;50.972;3.538;2023-04-25T08:52:46;8.65;;;1.67;;
32705;SDS011;19094;50.972;3.538;2023-04-25T08:55:15;12.30;;;2.53;;
32705;SDS011;19094;50.972;3.538;2023-04-25T08:57:41;13.38;;;1.85;;
32705;SDS011;19094;50.972;3.538;2023-04-25T09:00:08;9.00;;;1.52;;
32705;SDS011;19094;50.972;3.538;2023-04-25T09:02:35;12.77;;;2.38;;
32705;SDS011;19094;50.972;3.538;2023-04-25T09:05:02;5.22;;;1.88;;
32705;SDS011;19094;50.972;3.538;2023-04-25T09:07:29;6.53;;;1.60;;
32705;SDS011;19094;50.972;3.538;2023-04-25T09:09:55;6.65;;;1.88;;
32705;SDS011;19094;50.972;3.538;2023-04-25T09:12:20;7.32;;;1.50;;
32705;SDS011;19094;50.972;3.538;2023-04-25T09:17:30;8.15;;;2.10;;
32705;SDS011;19094;50.972;3.538;2023-04-25T09:20:04;8.82;;;1.60;;
32705;SDS011;19094;50.972;3.538;2023-04-25T09:22:38;6.20;;;1.60;;
32705;SDS011;19094;50.972;3.538;2023-04-25T09:25:07;12.80;;;1.45;;
32705;SDS011;19094;50.972;3.538;2023-04-25T09:27:37;8.00;;;1.43;;
32705;SDS011;19094;50.972;3.538;2023-04-25T09:30:18;7.45;;;1.88;;
32705;SDS011;19094;50.972;3.538;2023-04-25T09:32:44;8.85;;;1.73;;
32705;SDS011;19094;50.972;3.538;2023-04-25T09:35:10;9.48;;;2.00;;
32705;SDS011;19094;50.972;3.538;2023-04-25T09:37:48;6.55;;;1.73;;
32705;SDS011;19094;50.972;3.538;2023-04-25T09:40:13;8.20;;;1.60;;
32705;SDS011;19094;50.972;3.538;2023-04-25T09:42:40;6.43;;;1.42;;
32705;SDS011;19094;50.972;3.538;2023-04-25T09:45:06;7.30;;;1.50;;
32705;SDS011;19094;50.972;3.538;2023-04-25T09:47:32;10.43;;;3.00;;
32705;SDS011;19094;50.972;3.538;2023-04-25T09:50:02;4.68;;;1.38;;
32705;SDS011;19094;50.972;3.538;2023-04-25T09:52:38;5.72;;;1.67;;
32705;SDS011;19094;50.972;3.538;2023-04-25T09:55:04;6.35;;;1.63;;
32705;SDS011;19094;50.972;3.538;2023-04-25T09:57:30;7.47;;;1.65;;
32705;SDS011;19094;50.972;3.538;2023-04-25T09:59:56;12.70;;;1.70;;
32705;SDS011;19094;50.972;3.538;2023-04-25T10:02:25;6.22;;;1.35;;
32705;SDS011;19094;50.972;3.538;2023-04-25T10:04:52;7.28;;;1.20;;
32705;SDS011;19094;50.972;3.538;2023-04-25T10:07:23;7.22;;;1.52;;
32705;SDS011;19094;50.972;3.538;2023-04-25T10:09:54;5.35;;;1.30;;
32705;SDS011;19094;50.972;3.538;2023-04-25T10:12:29;7.00;;;2.08;;
32705;SDS011;19094;50.972;3.538;2023-04-25T10:14:58;5.90;;;1.48;;
32705;SDS011;19094;50.972;3.538;2023-04-25T10:17:28;7.22;;;1.52;;
32705;SDS011;19094;50.972;3.538;2023-04-25T10:19:54;8.55;;;1.30;;
32705;SDS011;19094;50.972;3.538;2023-04-25T10:22:34;5.05;;;0.93;;
32705;SDS011;19094;50.972;3.538;2023-04-25T10:25:01;4.07;;;1.10;;
32705;SDS011;19094;50.972;3.538;2023-04-25T10:27:29;4.63;;;1.33;;
32705;SDS011;19094;50.972;3.538;2023-04-25T10:30:02;5.80;;;1.52;;
32705;SDS011;19094;50.972;3.538;2023-04-25T10:32:35;3.80;;;1.00;;
32705;SDS011;19094;50.972;3.538;2023-04-25T10:35:13;7.38;;;1.13;;
32705;SDS011;19094;50.972;3.538;2023-04-25T10:40:31;5.38;;;1.42;;
32705;SDS011;19094;50.972;3.538;2023-04-25T10:48:52;4.20;;;1.00;;
32705;SDS011;19094;50.972;3.538;2023-04-25T10:51:23;4.13;;;1.00;;
32705;SDS011;19094;50.972;3.538;2023-04-25T10:56:23;5.97;;;1.35;;
32705;SDS011;19094;50.972;3.538;2023-04-25T11:01:37;4.50;;;1.10;;
32705;SDS011;19094;50.972;3.538;2023-04-25T11:04:19;3.80;;;1.15;;
32705;SDS011;19094;50.972;3.538;2023-04-25T11:09:42;7.82;;;1.92;;
32705;SDS011;19094;50.972;3.538;2023-04-25T11:12:10;4.82;;;1.45;;
32705;SDS011;19094;50.972;3.538;2023-04-25T11:14:39;10.07;;;1.90;;
32705;SDS011;19094;50.972;3.538;2023-04-25T11:17:04;4.97;;;1.20;;
32705;SDS011;19094;50.972;3.538;2023-04-25T11:19:31;10.25;;;1.88;;
32705;SDS011;19094;50.972;3.538;2023-04-25T11:21:57;6.20;;;1.55;;
32705;SDS011;19094;50.972;3.538;2023-04-25T11:24:30;10.05;;;1.70;;
32705;SDS011;19094;50.972;3.538;2023-04-25T11:27:00;5.60;;;1.20;;
32705;SDS011;19094;50.972;3.538;2023-04-25T11:29:31;3.63;;;1.45;;
32705;SDS011;19094;50.972;3.538;2023-04-25T11:31:57;5.63;;;1.77;;
32705;SDS011;19094;50.972;3.538;2023-04-25T11:34:24;5.85;;;1.25;;
32705;SDS011;19094;50.972;3.538;2023-04-25T11:36:51;8.00;;;1.50;;
32705;SDS011;19094;50.972;3.538;2023-04-25T11:39:18;4.20;;;1.42;;
32705;SDS011;19094;50.972;3.538;2023-04-25T11:41:44;5.85;;;1.27;;
32705;SDS011;19094;50.972;3.538;2023-04-25T11:44:11;5.22;;;1.25;;
32705;SDS011;19094;50.972;3.538;2023-04-25T11:46:40;2.72;;;0.98;;
32705;SDS011;19094;50.972;3.538;2023-04-25T11:49:05;5.72;;;1.23;;
32705;SDS011;19094;50.972;3.538;2023-04-25T11:51:37;6.45;;;1.40;;
32705;SDS011;19094;50.972;3.538;2023-04-25T11:54:09;4.10;;;0.90;;
32705;SDS011;19094;50.972;3.538;2023-04-25T11:56:36;8.32;;;1.25;;
32705;SDS011;19094;50.972;3.538;2023-04-25T11:59:03;3.40;;;1.40;;
32705;SDS011;19094;50.972;3.538;2023-04-25T12:04:09;3.25;;;1.10;;
32705;SDS011;19094;50.972;3.538;2023-04-25T12:06:39;10.63;;;1.40;;
32705;SDS011;19094;50.972;3.538;2023-04-25T12:09:09;9.18;;;1.35;;
32705;SDS011;19094;50.972;3.538;2023-04-25T12:11:42;5.70;;;1.42;;
32705;SDS011;19094;50.972;3.538;2023-04-25T12:14:09;5.15;;;1.10;;
32705;SDS011;19094;50.972;3.538;2023-04-25T12:16:45;8.85;;;1.52;;
32705;SDS011;19094;50.972;3.538;2023-04-25T12:19:18;6.88;;;1.63;;
32705;SDS011;19094;50.972;3.538;2023-04-25T12:21:45;2.53;;;1.20;;
32705;SDS011;19094;50.972;3.538;2023-04-25T12:24:18;7.68;;;1.20;;
32705;SDS011;19094;50.972;3.538;2023-04-25T12:29:20;7.38;;;1.13;;
32705;SDS011;19094;50.972;3.538;2023-04-25T12:31:47;7.55;;;1.50;;
32705;SDS011;19094;50.972;3.538;2023-04-25T12:34:13;11.20;;;1.45;;
32705;SDS011;19094;50.972;3.538;2023-04-25T12:36:39;8.55;;;1.42;;
32705;SDS011;19094;50.972;3.538;2023-04-25T12:39:05;6.20;;;1.00;;
32705;SDS011;19094;50.972;3.538;2023-04-25T12:41:31;9.18;;;1.50;;
32705;SDS011;19094;50.972;3.538;2023-04-25T12:43:57;5.30;;;1.40;;
32705;SDS011;19094;50.972;3.538;2023-04-25T12:46:23;4.50;;;1.30;;
32705;SDS011;19094;50.972;3.538;2023-04-25T12:48:49;9.73;;;2.00;;
32705;SDS011;19094;50.972;3.538;2023-04-25T12:51:15;9.48;;;2.03;;
32705;SDS011;19094;50.972;3.538;2023-04-25T12:53:41;4.28;;;1.10;;
32705;SDS011;19094;50.972;3.538;2023-04-25T12:56:07;5.30;;;1.48;;
32705;SDS011;19094;50.972;3.538;2023-04-25T12:58:33;7.68;;;2.10;;
32705;SDS011;19094;50.972;3.538;2023-04-25T13:00:59;8.73;;;1.55;;
32705;SDS011;19094;50.972;3.538;2023-04-25T13:03:25;8.73;;;1.10;;
32705;SDS011;19094;50.972;3.538;2023-04-25T13:05:51;4.05;;;0.93;;
32705;SDS011;19094;50.972;3.538;2023-04-25T13:08:20;9.45;;;1.48;;
32705;SDS011;19094;50.972;3.538;2023-04-25T13:10:47;8.60;;;1.77;;
32705;SDS011;19094;50.972;3.538;2023-04-25T13:13:13;16.40;;;1.40;;
32705;SDS011;19094;50.972;3.538;2023-04-25T13:15:38;4.63;;;1.25;;
32705;SDS011;19094;50.972;3.538;2023-04-25T13:18:04;3.30;;;1.20;;
32705;SDS011;19094;50.972;3.538;2023-04-25T13:20:33;8.68;;;1.48;;
32705;SDS011;19094;50.972;3.538;2023-04-25T13:22:58;13.90;;;1.27;;
32705;SDS011;19094;50.972;3.538;2023-04-25T13:25:24;3.97;;;1.08;;
32705;SDS011;19094;50.972;3.538;2023-04-25T13:27:50;5.90;;;1.10;;
32705;SDS011;19094;50.972;3.538;2023-04-25T13:30:16;7.05;;;1.85;;
32705;SDS011;19094;50.972;3.538;2023-04-25T13:32:41;7.85;;;1.60;;
32705;SDS011;19094;50.972;3.538;2023-04-25T13:35:09;12.18;;;2.45;;
32705;SDS011;19094;50.972;3.538;2023-04-25T13:37:36;11.73;;;2.10;;
32705;SDS011;19094;50.972;3.538;2023-04-25T13:40:03;7.10;;;1.35;;
32705;SDS011;19094;50.972;3.538;2023-04-25T13:42:34;6.35;;;1.67;;
32705;SDS011;19094;50.972;3.538;2023-04-25T13:45:00;7.85;;;1.65;;
32705;SDS011;19094;50.972;3.538;2023-04-25T13:47:26;7.40;;;1.80;;
32705;SDS011;19094;50.972;3.538;2023-04-25T13:49:52;9.00;;;1.38;;
32705;SDS011;19094;50.972;3.538;2023-04-25T13:52:18;6.88;;;1.50;;
32705;SDS011;19094;50.972;3.538;2023-04-25T13:54:44;7.55;;;1.70;;
32705;SDS011;19094;50.972;3.538;2023-04-25T13:57:10;8.65;;;1.83;;
32705;SDS011;19094;50.972;3.538;2023-04-25T13:59:36;8.18;;;1.15;;
32705;SDS011;19094;50.972;3.538;2023-04-25T14:02:02;4.32;;;1.25;;
32705;SDS011;19094;50.972;3.538;2023-04-25T14:04:28;8.10;;;1.98;;
32705;SDS011;19094;50.972;3.538;2023-04-25T14:06:54;5.75;;;1.40;;
32705;SDS011;19094;50.972;3.538;2023-04-25T14:09:20;6.00;;;1.75;;
32705;SDS011;19094;50.972;3.538;2023-04-25T14:11:50;4.85;;;1.25;;
32705;SDS011;19094;50.972;3.538;2023-04-25T14:14:17;4.85;;;1.40;;
32705;SDS011;19094;50.972;3.538;2023-04-25T14:16:43;8.52;;;1.65;;
32705;SDS011;19094;50.972;3.538;2023-04-25T14:19:09;7.97;;;1.23;;
32705;SDS011;19094;50.972;3.538;2023-04-25T14:21:34;5.57;;;1.98;;
32705;SDS011;19094;50.972;3.538;2023-04-25T14:24:00;6.50;;;1.42;;
32705;SDS011;19094;50.972;3.538;2023-04-25T14:26:26;5.55;;;1.17;;
32705;SDS011;19094;50.972;3.538;2023-04-25T14:28:51;5.25;;;1.40;;
32705;SDS011;19094;50.972;3.538;2023-04-25T14:31:17;9.18;;;1.80;;
32705;SDS011;19094;50.972;3.538;2023-04-25T14:33:43;5.72;;;1.40;;
32705;SDS011;19094;50.972;3.538;2023-04-25T14:36:09;8.10;;;1.60;;
32705;SDS011;19094;50.972;3.538;2023-04-25T14:38:35;8.45;;;1.63;;
32705;SDS011;19094;50.972;3.538;2023-04-25T14:41:03;4.55;;;1.08;;
32705;SDS011;19094;50.972;3.538;2023-04-25T14:43:29;7.43;;;1.55;;
32705;SDS011;19094;50.972;3.538;2023-04-25T14:45:54;12.45;;;1.67;;
32705;SDS011;19094;50.972;3.538;2023-04-25T14:48:20;7.68;;;1.58;;
32705;SDS011;19094;50.972;3.538;2023-04-25T14:50:46;13.40;;;1.70;;
32705;SDS011;19094;50.972;3.538;2023-04-25T14:53:12;10.55;;;1.83;;
32705;SDS011;19094;50.972;3.538;2023-04-25T14:55:38;5.82;;;1.25;;
32705;SDS011;19094;50.972;3.538;2023-04-25T14:58:03;8.23;;;1.48;;
32705;SDS011;19094;50.972;3.538;2023-04-25T15:00:29;6.97;;;1.20;;
32705;SDS011;19094;50.972;3.538;2023-04-25T15:02:56;10.77;;;1.70;;